createdAt,value
2022-09-29T00:00:51.019Z,6.90
2022-09-29T00:03:18.222Z,6.90
2022-09-29T00:05:49.869Z,6.90
2022-09-29T00:08:17.822Z,7.00
2022-09-29T00:10:45.326Z,6.90
2022-09-29T00:13:13.573Z,7.00
2022-09-29T00:15:42.805Z,7.00
2022-09-29T00:18:14.886Z,6.90
2022-09-29T00:20:42.105Z,6.90
2022-09-29T00:23:09.045Z,6.90
2022-09-29T00:25:35.971Z,6.90
2022-09-29T00:28:02.751Z,6.80
2022-09-29T00:30:29.608Z,6.90
2022-09-29T00:32:56.816Z,6.90
2022-09-29T00:35:23.780Z,6.90
2022-09-29T00:37:50.487Z,6.90
2022-09-29T00:40:17.392Z,7.00
2022-09-29T00:42:44.143Z,7.00
2022-09-29T00:45:24.527Z,6.90
2022-09-29T00:48:11.085Z,6.70
2022-09-29T00:50:48.451Z,6.80
2022-09-29T00:53:21.587Z,6.80
2022-09-29T00:56:02.553Z,6.90
2022-09-29T00:58:56.066Z,7.00
2022-09-29T01:01:25.352Z,7.00
2022-09-29T01:03:56.529Z,7.00
2022-09-29T01:06:43.350Z,7.00
2022-09-29T01:09:23.717Z,6.90
2022-09-29T01:11:52.773Z,6.80
2022-09-29T01:14:20.822Z,6.80
2022-09-29T01:16:47.757Z,6.90
2022-09-29T01:19:26.300Z,6.90
2022-09-29T01:22:13.898Z,7.00
2022-09-29T01:24:57.300Z,7.10
2022-09-29T01:27:45.734Z,7.10
2022-09-29T01:30:19.796Z,7.10
2022-09-29T01:33:12.093Z,7.10
2022-09-29T01:36:00.795Z,7.10
2022-09-29T01:38:49.378Z,7.10
2022-09-29T01:41:38.522Z,7.00
2022-09-29T01:44:26.802Z,7.00
2022-09-29T01:46:59.116Z,7.10
2022-09-29T01:49:30.648Z,7.10
2022-09-29T01:52:07.669Z,7.10
2022-09-29T01:54:47.960Z,7.10
2022-09-29T01:57:20.772Z,7.10
2022-09-29T02:00:10.147Z,7.10
2022-09-29T02:02:49.942Z,7.10
2022-09-29T02:05:36.305Z,7.10
2022-09-29T02:08:12.146Z,7.10
2022-09-29T02:10:48.494Z,7.20
2022-09-29T02:13:16.681Z,7.10
2022-09-29T02:15:47.990Z,7.10
2022-09-29T02:18:23.162Z,7.10
2022-09-29T02:20:50.783Z,7.20
2022-09-29T02:23:18.371Z,7.30
2022-09-29T02:25:52.733Z,7.20
2022-09-29T02:28:19.566Z,7.20
2022-09-29T02:30:49.701Z,7.20
2022-09-29T02:33:22.550Z,7.20
2022-09-29T02:36:24.358Z,7.30
2022-09-29T02:39:01.925Z,7.30
2022-09-29T02:41:40.695Z,7.30
2022-09-29T02:44:27.172Z,7.30
2022-09-29T02:46:59.594Z,7.30
2022-09-29T02:49:43.015Z,7.30
2022-09-29T02:52:34.753Z,7.20
2022-09-29T02:55:11.277Z,7.20
2022-09-29T02:57:59.476Z,7.30
2022-09-29T03:00:27.415Z,7.30
2022-09-29T03:02:54.067Z,7.20
2022-09-29T03:05:22.669Z,7.00
2022-09-29T03:07:49.601Z,6.90
2022-09-29T03:10:18.038Z,7.00
2022-09-29T03:12:45.070Z,7.00
2022-09-29T03:15:12.587Z,7.10
2022-09-29T03:17:42.453Z,7.20
2022-09-29T03:20:10.015Z,7.10
2022-09-29T03:22:36.819Z,7.10
2022-09-29T03:25:06.111Z,7.20
2022-09-29T03:27:33.440Z,7.20
2022-09-29T03:30:00.397Z,7.10
2022-09-29T03:32:53.977Z,7.20
2022-09-29T03:35:20.651Z,7.30
2022-09-29T03:37:47.404Z,7.30
2022-09-29T03:40:14.846Z,7.40
2022-09-29T03:42:41.550Z,7.30
2022-09-29T03:45:08.559Z,7.30
2022-09-29T03:47:35.215Z,7.30
2022-09-29T03:50:01.900Z,7.30
2022-09-29T03:52:29.189Z,7.30
2022-09-29T03:54:55.910Z,7.40
2022-09-29T03:57:22.720Z,7.30
2022-09-29T03:59:49.642Z,7.30
2022-09-29T04:02:18.358Z,7.30
2022-09-29T04:04:45.528Z,7.40
2022-09-29T04:07:12.278Z,7.40
2022-09-29T04:09:38.993Z,7.40
2022-09-29T04:12:05.784Z,7.40
2022-09-29T04:14:32.694Z,7.30
2022-09-29T04:16:59.415Z,7.20
2022-09-29T04:19:26.178Z,7.30
2022-09-29T04:21:52.881Z,7.40
2022-09-29T04:24:19.526Z,7.30
2022-09-29T04:26:46.384Z,7.40
2022-09-29T04:29:13.064Z,7.40
2022-09-29T04:31:39.808Z,7.40
2022-09-29T04:34:06.496Z,7.50
2022-09-29T04:36:33.210Z,7.50
2022-09-29T04:38:59.894Z,7.50
2022-09-29T04:41:26.640Z,7.40
2022-09-29T04:43:53.374Z,7.40
2022-09-29T04:46:20.229Z,7.40
2022-09-29T04:48:47.015Z,7.40
2022-09-29T04:51:13.695Z,7.40
2022-09-29T04:53:40.428Z,7.50
2022-09-29T04:56:08.803Z,7.40
2022-09-29T04:58:36.026Z,7.40
2022-09-29T05:01:13.592Z,7.40
2022-09-29T05:03:40.769Z,7.30
2022-09-29T05:06:09.338Z,7.40
2022-09-29T05:08:36.370Z,7.40
2022-09-29T05:11:08.701Z,7.30
2022-09-29T05:13:36.032Z,7.40
2022-09-29T05:16:03.824Z,7.40
2022-09-29T05:18:31.616Z,7.40
2022-09-29T05:23:53.408Z,7.40
2022-09-29T05:26:20.149Z,7.30
2022-09-29T05:28:48.167Z,7.30
2022-09-29T05:31:15.526Z,7.30
2022-09-29T05:33:42.345Z,7.30
2022-09-29T05:36:11.187Z,7.20
2022-09-29T05:38:38.877Z,7.10
2022-09-29T05:41:24.220Z,7.20
2022-09-29T05:43:53.478Z,7.20
2022-09-29T05:46:21.329Z,7.30
2022-09-29T05:48:48.744Z,7.30
2022-09-29T05:51:22.430Z,7.30
2022-09-29T05:53:50.251Z,7.40
2022-09-29T05:56:22.474Z,7.40
2022-09-29T05:58:49.472Z,7.40
2022-09-29T06:01:19.616Z,7.40
2022-09-29T06:03:46.995Z,7.40
2022-09-29T06:06:16.429Z,7.40
2022-09-29T06:08:44.634Z,7.50
2022-09-29T06:11:17.358Z,7.50
2022-09-29T06:13:46.276Z,7.60
2022-09-29T06:16:14.150Z,7.70
2022-09-29T06:18:41.236Z,7.70
2022-09-29T06:21:18.764Z,7.60
2022-09-29T06:23:45.468Z,7.60
2022-09-29T06:26:14.550Z,7.60
2022-09-29T06:28:41.748Z,7.70
2022-09-29T06:31:12.237Z,7.70
2022-09-29T06:33:39.057Z,7.80
2022-09-29T06:36:30.560Z,7.80
2022-09-29T06:38:57.531Z,7.70
2022-09-29T06:41:24.181Z,7.80
2022-09-29T06:43:50.828Z,7.60
2022-09-29T06:46:17.829Z,7.60
2022-09-29T06:48:45.262Z,7.60
2022-09-29T06:51:11.943Z,7.60
2022-09-29T06:53:39.298Z,7.70
2022-09-29T06:56:07.387Z,7.80
2022-09-29T06:58:34.110Z,7.90
2022-09-29T07:01:02.016Z,7.90
2022-09-29T07:03:32.781Z,8.00
2022-09-29T07:06:20.354Z,8.10
2022-09-29T07:08:47.343Z,8.10
2022-09-29T07:11:14.798Z,8.20
2022-09-29T07:13:41.496Z,8.30
2022-09-29T07:16:10.518Z,8.40
2022-09-29T07:18:39.306Z,8.40
2022-09-29T07:21:11.341Z,8.30
2022-09-29T07:23:39.007Z,8.40
2022-09-29T07:26:07.151Z,8.40
2022-09-29T07:28:34.948Z,8.50
2022-09-29T07:31:15.793Z,8.60
2022-09-29T07:33:47.440Z,8.60
2022-09-29T07:36:16.694Z,8.60
2022-09-29T07:38:47.152Z,8.60
2022-09-29T07:41:14.376Z,8.70
2022-09-29T07:43:41.089Z,8.70
2022-09-29T07:46:08.741Z,8.60
2022-09-29T07:48:36.964Z,8.70
2022-09-29T07:51:07.882Z,8.80
2022-09-29T07:53:37.017Z,8.80
2022-09-29T07:56:07.799Z,8.90
2022-09-29T07:58:35.705Z,9.00
2022-09-29T08:01:06.279Z,9.10
2022-09-29T08:03:33.663Z,9.10
2022-09-29T08:06:00.424Z,9.10
2022-09-29T08:08:27.282Z,9.20
2022-09-29T08:11:06.008Z,9.30
2022-09-29T08:13:33.680Z,9.30
2022-09-29T08:16:01.545Z,9.30
2022-09-29T08:18:29.222Z,9.20
2022-09-29T08:21:01.312Z,9.20
2022-09-29T08:23:31.879Z,9.20
2022-09-29T08:26:06.470Z,9.30
2022-09-29T08:28:34.698Z,9.30
2022-09-29T08:31:09.083Z,9.40
2022-09-29T08:33:38.523Z,9.50
2022-09-29T08:36:14.349Z,9.60
2022-09-29T08:38:49.613Z,9.50
2022-09-29T08:41:28.559Z,9.40
2022-09-29T08:44:01.120Z,9.60
2022-09-29T08:46:42.694Z,9.60
2022-09-29T08:49:29.143Z,9.70
2022-09-29T08:52:16.140Z,9.80
2022-09-29T08:54:49.057Z,9.90
2022-09-29T08:57:19.408Z,10.00
2022-09-29T08:59:55.946Z,10.00
2022-09-29T09:02:47.434Z,9.90
2022-09-29T09:05:35.939Z,9.90
2022-09-29T09:08:17.850Z,10.10
2022-09-29T09:11:12.045Z,10.30
2022-09-29T09:13:52.123Z,10.50
2022-09-29T09:16:54.188Z,10.70
2022-09-29T09:19:55.914Z,10.60
2022-09-29T09:22:25.102Z,10.70
2022-09-29T09:24:59.393Z,10.70
2022-09-29T09:27:39.694Z,10.80
2022-09-29T09:30:13.505Z,10.80
2022-09-29T09:32:56.293Z,10.80
2022-09-29T09:35:35.590Z,10.80
2022-09-29T09:38:16.238Z,10.90
2022-09-29T09:40:48.985Z,11.00
2022-09-29T09:43:34.711Z,11.10
2022-09-29T09:46:09.932Z,11.20
2022-09-29T09:48:44.159Z,11.10
2022-09-29T09:51:41.238Z,11.10
2022-09-29T09:54:25.685Z,10.70
2022-09-29T09:57:07.255Z,10.60
2022-09-29T09:59:56.536Z,10.50
2022-09-29T10:02:24.529Z,10.60
2022-09-29T10:04:53.185Z,10.60
2022-09-29T10:07:21.907Z,10.70
2022-09-29T10:09:49.083Z,10.70
2022-09-29T10:12:21.179Z,10.80
2022-09-29T10:15:01.512Z,10.80
2022-09-29T10:17:36.920Z,10.90
2022-09-29T10:20:07.932Z,11.00
2022-09-29T10:22:35.490Z,11.00
2022-09-29T10:25:14.825Z,11.20
2022-09-29T10:27:45.406Z,11.20
2022-09-29T10:30:32.455Z,11.20
2022-09-29T10:33:03.213Z,11.30
2022-09-29T10:35:36.944Z,11.50
2022-09-29T10:38:08.316Z,11.50
2022-09-29T10:40:36.757Z,11.70
2022-09-29T10:43:24.901Z,11.80
2022-09-29T10:45:53.784Z,11.50
2022-09-29T10:48:20.606Z,11.40
2022-09-29T10:51:05.839Z,11.20
2022-09-29T10:53:40.315Z,11.30
2022-09-29T10:56:29.632Z,11.30
2022-09-29T10:59:04.444Z,11.40
2022-09-29T11:01:42.993Z,11.60
2022-09-29T11:04:26.465Z,11.60
2022-09-29T11:06:54.454Z,11.70
2022-09-29T11:09:21.404Z,11.70
2022-09-29T11:11:48.170Z,11.70
2022-09-29T11:14:47.252Z,11.70
2022-09-29T11:17:32.165Z,11.80
2022-09-29T11:20:02.252Z,11.90
2022-09-29T11:22:38.031Z,11.70
2022-09-29T11:25:16.729Z,11.30
2022-09-29T11:27:53.826Z,11.30
2022-09-29T11:30:26.934Z,11.30
2022-09-29T11:33:12.358Z,11.10
2022-09-29T11:35:48.056Z,11.20
2022-09-29T11:38:36.829Z,11.20
2022-09-29T11:41:33.513Z,11.50
2022-09-29T11:44:26.136Z,11.60
2022-09-29T11:47:04.849Z,11.50
2022-09-29T11:49:58.223Z,11.60
2022-09-29T11:52:50.171Z,11.80
2022-09-29T11:55:43.903Z,12.00
2022-09-29T11:58:29.035Z,11.60
2022-09-29T12:01:28.482Z,11.90
2022-09-29T12:04:09.656Z,12.00
2022-09-29T12:06:48.491Z,11.80
2022-09-29T12:09:30.856Z,11.80
2022-09-29T12:12:24.390Z,11.70
2022-09-29T12:15:10.610Z,11.90
2022-09-29T12:17:43.490Z,12.00
2022-09-29T12:20:29.917Z,12.00
2022-09-29T12:23:01.132Z,12.10
2022-09-29T12:25:31.139Z,12.30
2022-09-29T12:28:02.378Z,12.40
2022-09-29T12:30:46.647Z,12.40
2022-09-29T12:33:21.211Z,12.50
2022-09-29T12:36:30.105Z,12.60
2022-09-29T12:39:08.029Z,12.40
2022-09-29T12:41:41.622Z,12.20
2022-09-29T12:44:25.202Z,12.10
2022-09-29T12:47:28.637Z,12.20
2022-09-29T12:50:41.319Z,12.50
2022-09-29T12:53:20.799Z,11.80
2022-09-29T12:56:25.295Z,11.40
2022-09-29T12:59:06.532Z,11.60
2022-09-29T13:01:36.532Z,11.70
2022-09-29T13:04:36.454Z,11.90
2022-09-29T13:07:23.614Z,12.20
2022-09-29T13:10:27.051Z,12.40
2022-09-29T13:13:15.682Z,12.50
2022-09-29T13:16:09.764Z,12.50
2022-09-29T13:19:22.951Z,12.10
2022-09-29T13:21:53.001Z,12.00
2022-09-29T13:24:44.072Z,12.10
2022-09-29T13:27:34.812Z,12.10
2022-09-29T13:30:09.718Z,12.20
2022-09-29T13:32:42.631Z,12.20
2022-09-29T13:35:20.868Z,12.10
2022-09-29T13:37:52.439Z,11.90
2022-09-29T13:40:37.334Z,11.80
2022-09-29T13:43:07.599Z,11.60
2022-09-29T13:45:34.900Z,11.60
2022-09-29T13:48:30.578Z,11.60
2022-09-29T13:51:01.783Z,11.50
2022-09-29T13:53:36.213Z,11.50
2022-09-29T13:56:02.881Z,11.70
2022-09-29T13:58:56.970Z,11.70
2022-09-29T14:01:38.083Z,11.90
2022-09-29T14:04:36.848Z,11.90
2022-09-29T14:07:06.271Z,11.80
2022-09-29T14:09:46.413Z,11.70
2022-09-29T14:12:27.480Z,11.70
2022-09-29T14:15:00.594Z,11.70
2022-09-29T14:17:36.098Z,11.60
2022-09-29T14:20:18.824Z,11.50
2022-09-29T14:22:55.118Z,11.50
2022-09-29T14:25:30.872Z,11.40
2022-09-29T14:28:01.547Z,11.40
2022-09-29T14:30:51.238Z,11.40
2022-09-29T14:33:43.120Z,11.40
2022-09-29T14:36:15.787Z,11.50
2022-09-29T14:39:21.739Z,11.50
2022-09-29T14:41:49.216Z,11.40
2022-09-29T14:44:25.004Z,11.40
2022-09-29T14:47:54.311Z,11.50
2022-09-29T14:50:50.961Z,11.50
2022-09-29T14:53:52.558Z,11.40
2022-09-29T14:56:34.615Z,11.30
2022-09-29T14:59:09.329Z,11.20
2022-09-29T15:01:40.953Z,11.10
2022-09-29T15:04:17.644Z,11.00
2022-09-29T15:06:49.959Z,10.90
2022-09-29T15:09:24.339Z,11.00
2022-09-29T15:11:53.144Z,11.00
2022-09-29T15:14:30.481Z,11.00
2022-09-29T15:17:28.208Z,11.10
2022-09-29T15:20:32.419Z,11.10
2022-09-29T15:23:30.089Z,11.10
2022-09-29T15:28:38.732Z,11.10
2022-09-29T15:31:10.898Z,11.10
2022-09-29T15:33:44.365Z,11.10
2022-09-29T15:36:33.993Z,11.10
2022-09-29T15:39:23.506Z,11.10
2022-09-29T15:42:02.017Z,11.00
2022-09-29T15:44:32.830Z,11.00
2022-09-29T15:47:00.321Z,10.90
2022-09-29T15:49:28.949Z,10.80
2022-09-29T15:52:14.821Z,10.90
2022-09-29T15:54:46.919Z,10.80
2022-09-29T15:57:58.484Z,10.90
2022-09-29T16:00:26.883Z,10.80
2022-09-29T16:03:03.209Z,10.30
2022-09-29T16:05:32.752Z,10.20
2022-09-29T16:07:59.561Z,10.00
2022-09-29T16:10:38.441Z,9.70
2022-09-29T16:13:08.764Z,9.60
2022-09-29T16:15:47.854Z,9.70
2022-09-29T16:18:49.129Z,9.70
2022-09-29T16:21:24.553Z,9.70
2022-09-29T16:24:08.861Z,9.70
2022-09-29T16:26:39.122Z,9.70
2022-09-29T16:29:20.704Z,9.80
2022-09-29T16:31:49.758Z,9.70
2022-09-29T16:34:23.502Z,9.70
2022-09-29T16:37:05.924Z,9.70
2022-09-29T16:39:49.224Z,9.80
2022-09-29T16:42:27.197Z,9.90
2022-09-29T16:44:57.614Z,9.80
2022-09-29T16:47:30.423Z,9.80
2022-09-29T16:49:58.768Z,9.80
2022-09-29T16:52:50.787Z,9.70
2022-09-29T16:55:27.804Z,9.70
2022-09-29T16:58:01.280Z,9.60
2022-09-29T17:00:29.227Z,9.50
2022-09-29T17:02:57.752Z,9.70
2022-09-29T17:05:28.773Z,9.70
2022-09-29T17:08:03.567Z,9.80
2022-09-29T17:10:31.200Z,9.80
2022-09-29T17:12:58.196Z,9.90
2022-09-29T17:15:26.133Z,9.90
2022-09-29T17:17:54.415Z,9.90
2022-09-29T17:20:29.997Z,9.90
2022-09-29T17:22:59.862Z,9.90
2022-09-29T17:25:27.503Z,9.80
2022-09-29T17:28:12.832Z,9.80
2022-09-29T17:30:41.401Z,9.70
2022-09-29T17:33:12.200Z,9.70
2022-09-29T17:35:41.503Z,9.70
2022-09-29T17:38:09.482Z,9.80
2022-09-29T17:40:36.500Z,9.70
2022-09-29T17:43:03.465Z,9.70
2022-09-29T17:45:34.680Z,9.70
2022-09-29T17:48:02.424Z,9.60
2022-09-29T17:50:34.145Z,9.50
2022-09-29T17:53:04.247Z,9.60
2022-09-29T17:55:33.773Z,9.70
2022-09-29T17:58:05.079Z,9.70
2022-09-29T18:00:40.424Z,9.70
2022-09-29T18:03:13.143Z,9.70
2022-09-29T18:05:43.279Z,9.60
2022-09-29T18:08:18.001Z,9.70
2022-09-29T18:10:50.388Z,9.60
2022-09-29T18:13:17.508Z,9.60
2022-09-29T18:15:44.763Z,9.60
2022-09-29T18:18:18.147Z,9.60
2022-09-29T18:20:47.164Z,9.60
2022-09-29T18:23:15.374Z,9.60
2022-09-29T18:25:47.508Z,9.60
2022-09-29T18:28:15.728Z,9.60
2022-09-29T18:30:45.420Z,9.60
2022-09-29T18:33:17.766Z,9.60
2022-09-29T18:35:51.861Z,9.50
2022-09-29T18:38:18.640Z,9.50
2022-09-29T18:40:47.119Z,9.60
2022-09-29T18:43:14.467Z,9.60
2022-09-29T18:45:42.885Z,9.60
2022-09-29T18:48:15.435Z,9.60
2022-09-29T18:50:47.523Z,9.60
2022-09-29T18:53:16.712Z,9.60
2022-09-29T18:55:43.784Z,9.60
2022-09-29T18:58:14.074Z,9.60
2022-09-29T19:00:44.232Z,9.60
2022-09-29T19:03:10.912Z,9.50
2022-09-29T19:05:41.863Z,9.50
2022-09-29T19:08:11.019Z,9.50
2022-09-29T19:10:38.322Z,9.60
2022-09-29T19:13:08.352Z,9.50
2022-09-29T19:15:40.494Z,9.50
2022-09-29T19:18:08.919Z,9.60
2022-09-29T19:20:36.202Z,9.60
2022-09-29T19:23:03.870Z,9.60
2022-09-29T19:25:34.195Z,9.60
2022-09-29T19:28:05.200Z,9.60
2022-09-29T19:30:39.376Z,9.60
2022-09-29T19:33:08.539Z,9.60
2022-09-29T19:35:36.341Z,9.50
2022-09-29T19:38:04.012Z,9.60
2022-09-29T19:40:37.474Z,9.50
2022-09-29T19:43:05.754Z,9.50
2022-09-29T19:45:40.010Z,9.50
2022-09-29T19:48:10.344Z,9.50
2022-09-29T19:50:55.531Z,9.50
2022-09-29T19:53:22.261Z,9.30
2022-09-29T19:55:49.265Z,9.20
2022-09-29T19:58:16.481Z,9.10
2022-09-29T20:00:43.318Z,9.20
2022-09-29T20:03:10.732Z,9.20
2022-09-29T20:05:39.460Z,9.20
2022-09-29T20:08:07.214Z,9.10
2022-09-29T20:10:34.368Z,9.00
2022-09-29T20:13:02.885Z,9.00
2022-09-29T20:15:30.398Z,8.90
2022-09-29T20:17:57.515Z,9.00
2022-09-29T20:20:24.371Z,9.10
2022-09-29T20:22:53.420Z,9.10
2022-09-29T20:25:21.160Z,9.10
2022-09-29T20:27:49.827Z,9.00
2022-09-29T20:30:17.138Z,8.90
2022-09-29T20:32:43.884Z,8.80
2022-09-29T20:35:10.600Z,8.80
2022-09-29T20:37:38.956Z,8.70
2022-09-29T20:40:06.289Z,8.70
2022-09-29T20:42:34.143Z,8.70
2022-09-29T20:45:01.463Z,8.70
2022-09-29T20:47:28.235Z,8.70
2022-09-29T20:49:56.370Z,8.70
2022-09-29T20:52:24.240Z,8.70
2022-09-29T20:54:51.297Z,8.60
2022-09-29T20:57:18.012Z,8.60
2022-09-29T20:59:44.862Z,8.60
2022-09-29T21:02:13.379Z,8.60
2022-09-29T21:04:42.454Z,8.60
2022-09-29T21:07:29.407Z,8.60
2022-09-29T21:09:56.316Z,8.60
2022-09-29T21:12:23.247Z,8.60
2022-09-29T21:14:50.011Z,8.60
2022-09-29T21:17:16.869Z,8.70
2022-09-29T21:19:43.622Z,8.70
2022-09-29T21:22:10.616Z,8.70
2022-09-29T21:24:39.022Z,8.60
2022-09-29T21:27:07.240Z,8.50
2022-09-29T21:29:34.067Z,8.40
2022-09-29T21:32:02.002Z,8.40
2022-09-29T21:34:29.090Z,8.50
2022-09-29T21:36:55.776Z,8.40
2022-09-29T21:39:22.492Z,8.40
2022-09-29T21:41:49.214Z,8.40
2022-09-29T21:44:23.200Z,8.40
2022-09-29T21:46:50.972Z,8.40
2022-09-29T21:49:19.377Z,8.40
2022-09-29T21:51:48.577Z,8.30
2022-09-29T21:54:23.264Z,8.30
2022-09-29T21:56:50.592Z,8.30
2022-09-29T21:59:19.468Z,8.20
2022-09-29T22:01:46.874Z,8.30
2022-09-29T22:04:14.151Z,8.30
2022-09-29T22:06:44.402Z,8.30
2022-09-29T22:09:20.500Z,8.50
2022-09-29T22:11:49.719Z,8.50
2022-09-29T22:14:16.724Z,8.60
2022-09-29T22:16:43.635Z,8.60
2022-09-29T22:19:26.114Z,8.60
2022-09-29T22:21:56.161Z,8.60
2022-09-29T22:24:23.940Z,8.60
2022-09-29T22:26:51.075Z,8.60
2022-09-29T22:29:17.785Z,8.60
2022-09-29T22:31:44.523Z,8.60
2022-09-29T22:34:11.456Z,8.60
2022-09-29T22:36:38.854Z,8.60
2022-09-29T22:39:06.696Z,8.50
2022-09-29T22:41:36.411Z,8.50
2022-09-29T22:44:03.253Z,8.50
2022-09-29T22:46:31.508Z,8.50
2022-09-29T22:48:58.634Z,8.50
2022-09-29T22:51:25.611Z,8.50
2022-09-29T22:53:52.378Z,8.50
2022-09-29T22:56:21.948Z,8.50
2022-09-29T22:58:49.508Z,8.40
2022-09-29T23:01:18.120Z,8.30
2022-09-29T23:03:45.962Z,8.20
2022-09-29T23:06:13.700Z,8.10
2022-09-29T23:08:41.218Z,8.10
2022-09-29T23:11:14.309Z,8.00
2022-09-29T23:13:41.118Z,8.10
2022-09-29T23:16:12.489Z,8.00
2022-09-29T23:18:47.155Z,8.00
2022-09-29T23:21:19.775Z,8.00
2022-09-29T23:23:55.871Z,7.90
2022-09-29T23:26:23.246Z,7.90
2022-09-29T23:28:50.217Z,7.80
2022-09-29T23:31:16.949Z,7.80
2022-09-29T23:33:43.780Z,7.80
2022-09-29T23:36:12.980Z,7.80
2022-09-29T23:38:59.743Z,7.80
2022-09-29T23:41:27.820Z,7.80
2022-09-29T23:43:55.646Z,7.60
2022-09-29T23:46:26.997Z,7.60
2022-09-29T23:48:53.850Z,7.60
2022-09-29T23:51:20.987Z,7.50
2022-09-29T23:53:47.647Z,7.50
2022-09-29T23:56:14.377Z,7.60
2022-09-29T23:58:41.500Z,7.70
